Time;durP1;ratioP1;P1;durP2;ratioP2;P2;SDS_P1;SDS_P2;PMS_P1;PMS_P2;Temp;Humidity;BMP_temperature;BMP_pressure;BME280_temperature;BME280_humidity;BME280_pressure;Samples;Min_cycle;Max_cycle;Signal;HPM_P1;HPM_P2
2022/07/13 00:01:16;;;;;;;0.43;0.28;;;19.60;99.90;;;;;;5085628;28;20037;-84
2022/07/13 00:03:42;;;;;;;0.25;0.25;;;19.60;99.90;;;;;;5086162;28;20033;-84
2022/07/13 00:06:09;;;;;;;0.20;0.20;;;19.70;99.90;;;;;;5069564;28;20410;-83
2022/07/13 00:08:36;;;;;;;0.10;0.10;;;19.70;99.90;;;;;;5086002;28;20048;-86
2022/07/13 00:11:02;;;;;;;0.45;0.40;;;19.70;99.90;;;;;;5085964;28;20131;-86
2022/07/13 00:13:29;;;;;;;0.40;0.28;;;19.70;99.90;;;;;;5086158;28;20048;-86
2022/07/13 00:15:56;;;;;;;0.10;0.10;;;19.70;99.90;;;;;;5086055;28;20048;-83
2022/07/13 00:18:26;;;;;;;0.10;0.10;;;19.70;99.90;;;;;;5069476;28;20041;-84
2022/07/13 00:20:52;;;;;;;0.10;0.10;;;19.70;99.90;;;;;;5086843;28;20126;-86
2022/07/13 00:23:19;;;;;;;0.10;0.10;;;19.70;99.90;;;;;;5102725;28;20501;-84
2022/07/13 00:25:46;;;;;;;0.20;0.10;;;19.60;99.90;;;;;;5085854;28;20040;-86
2022/07/13 00:28:13;;;;;;;0.10;0.10;;;19.60;99.90;;;;;;5069460;28;20041;-83
2022/07/13 00:30:39;;;;;;;0.03;0.03;;;19.60;99.90;;;;;;5085773;28;20037;-84
2022/07/13 00:33:07;;;;;;;0.15;0.15;;;19.50;99.90;;;;;;5085628;28;20037;-84
2022/07/13 00:35:34;;;;;;;0.15;0.15;;;19.50;99.90;;;;;;5070499;28;20045;-84
2022/07/13 00:38:01;;;;;;;0.20;0.20;;;19.50;99.90;;;;;;5089285;28;20576;-86
2022/07/13 00:40:28;;;;;;;0.47;0.40;;;19.50;99.90;;;;;;5072848;28;20045;-87
2022/07/13 00:42:54;;;;;;;0.20;0.20;;;19.50;99.90;;;;;;5089461;28;20036;-83
2022/07/13 00:45:21;;;;;;;0.20;0.20;;;19.50;99.90;;;;;;5089227;28;20051;-83
2022/07/13 00:47:49;;;;;;;0.20;0.10;;;19.40;99.90;;;;;;5089182;28;20486;-84
2022/07/13 00:50:16;;;;;;;0.20;0.20;;;19.50;99.90;;;;;;5105649;28;20123;-84
2022/07/13 00:52:43;;;;;;;0.28;0.20;;;19.50;99.90;;;;;;5088727;28;20127;-85
2022/07/13 00:55:11;;;;;;;0.20;0.20;;;19.50;99.90;;;;;;5072862;28;20052;-86
2022/07/13 00:57:38;;;;;;;0.28;0.25;;;19.40;99.90;;;;;;5088860;28;20088;-86
2022/07/13 01:00:09;;;;;;;1.25;0.20;;;19.40;99.90;;;;;;5106131;28;20044;-84
2022/07/13 01:02:37;;;;;;;0.28;0.20;;;19.40;99.90;;;;;;5105413;28;20386;-84
2022/07/13 01:05:04;;;;;;;0.30;0.30;;;19.40;99.90;;;;;;5089258;28;20072;-84
2022/07/13 01:07:32;;;;;;;0.20;0.20;;;19.40;99.90;;;;;;5089375;28;20045;-86
2022/07/13 01:10:07;;;;;;;0.40;0.25;;;19.40;99.90;;;;;;5105991;28;20045;-86
2022/07/13 01:12:35;;;;;;;0.45;0.30;;;19.40;99.90;;;;;;5108483;28;20111;-84
2022/07/13 01:15:04;;;;;;;0.22;0.20;;;19.40;99.90;;;;;;5126356;28;20052;-84
2022/07/13 01:17:32;;;;;;;0.20;0.20;;;19.40;99.90;;;;;;5076551;28;20044;-84
2022/07/13 01:19:59;;;;;;;0.25;0.20;;;19.40;99.90;;;;;;5084010;28;20044;-84
2022/07/13 01:22:31;;;;;;;0.47;0.30;;;19.40;99.90;;;;;;5092581;28;20127;-86
2022/07/13 01:24:58;;;;;;;0.30;0.25;;;19.40;99.90;;;;;;5092323;28;20041;-84
2022/07/13 01:27:25;;;;;;;0.28;0.20;;;19.40;99.90;;;;;;5073160;28;20522;-84
2022/07/13 01:29:52;;;;;;;0.32;0.20;;;19.40;99.90;;;;;;5098368;28;20033;-84
2022/07/13 01:32:19;;;;;;;0.13;0.13;;;19.40;99.90;;;;;;5039764;28;20036;-85
2022/07/13 01:34:46;;;;;;;0.30;0.30;;;19.40;99.90;;;;;;5101678;28;20386;-84
2022/07/13 01:37:13;;;;;;;0.52;0.40;;;19.40;99.90;;;;;;5075390;28;20049;-84
2022/07/13 01:39:39;;;;;;;0.20;0.20;;;19.40;99.90;;;;;;5091833;28;20475;-84
2022/07/13 01:42:06;;;;;;;0.82;0.50;;;19.40;99.90;;;;;;5091867;28;20119;-86
2022/07/13 01:44:33;;;;;;;0.38;0.38;;;19.40;99.90;;;;;;5109223;28;20040;-86
2022/07/13 01:47:07;;;;;;;0.47;0.38;;;19.40;99.90;;;;;;5083629;28;20044;-84
2022/07/13 01:49:34;;;;;;;0.33;0.33;;;19.40;99.90;;;;;;5055897;28;20033;-86
2022/07/13 01:52:01;;;;;;;0.40;0.40;;;19.40;99.90;;;;;;5088626;28;20518;-84
2022/07/13 01:54:27;;;;;;;0.10;0.10;;;19.40;99.90;;;;;;5072233;28;20053;-87
2022/07/13 01:56:54;;;;;;;0.30;0.30;;;19.40;99.90;;;;;;5071245;28;20505;-84
2022/07/13 01:59:21;;;;;;;0.43;0.40;;;19.40;99.90;;;;;;5088290;28;20079;-84
2022/07/13 02:01:47;;;;;;;0.30;0.30;;;19.40;99.90;;;;;;5071599;28;20150;-86
2022/07/13 02:04:14;;;;;;;0.63;0.30;;;19.40;99.90;;;;;;5088529;28;20182;-84
2022/07/13 02:06:41;;;;;;;1.75;0.30;;;19.40;99.90;;;;;;5055194;28;20498;-84
2022/07/13 02:09:07;;;;;;;0.25;0.25;;;19.40;99.90;;;;;;5071384;28;20583;-86
2022/07/13 02:11:34;;;;;;;0.70;0.40;;;19.40;99.90;;;;;;5104892;28;20048;-84
2022/07/13 02:14:01;;;;;;;0.43;0.30;;;19.40;99.90;;;;;;5087861;28;20045;-84
2022/07/13 02:16:27;;;;;;;0.15;0.15;;;19.40;99.90;;;;;;5071126;28;20077;-84
2022/07/13 02:18:54;;;;;;;0.40;0.30;;;19.40;99.90;;;;;;5070895;28;20037;-84
2022/07/13 02:21:21;;;;;;;0.30;0.30;;;19.40;99.90;;;;;;5071666;28;20099;-84
2022/07/13 02:23:47;;;;;;;0.55;0.38;;;19.40;99.90;;;;;;5070404;28;20059;-84
2022/07/13 02:26:14;;;;;;;0.60;0.50;;;19.40;99.90;;;;;;5088051;28;20409;-84
2022/07/13 02:28:41;;;;;;;0.47;0.40;;;19.40;99.90;;;;;;5054684;28;20074;-84
2022/07/13 02:31:07;;;;;;;1.27;0.50;;;19.40;99.90;;;;;;5070769;28;20047;-84
2022/07/13 02:33:34;;;;;;;0.32;0.32;;;19.40;99.90;;;;;;5087826;28;20148;-83
2022/07/13 02:36:00;;;;;;;0.30;0.30;;;19.40;99.90;;;;;;5073629;28;20060;-84
2022/07/13 02:38:27;;;;;;;0.60;0.50;;;19.40;99.90;;;;;;5091360;28;20088;-87
2022/07/13 02:40:54;;;;;;;0.30;0.28;;;19.40;99.90;;;;;;5090791;28;20079;-83
2022/07/13 02:43:20;;;;;;;0.60;0.38;;;19.40;99.90;;;;;;5091328;28;20044;-86
2022/07/13 02:45:47;;;;;;;0.63;0.40;;;19.40;99.90;;;;;;5091189;28;20091;-84
2022/07/13 02:48:14;;;;;;;0.40;0.30;;;19.40;99.90;;;;;;5091489;28;20374;-84
2022/07/13 02:50:40;;;;;;;0.75;0.50;;;19.40;99.90;;;;;;5091272;28;20052;-86
2022/07/13 02:53:07;;;;;;;0.82;0.57;;;19.40;99.90;;;;;;5090529;28;20040;-86
2022/07/13 02:55:34;;;;;;;0.38;0.38;;;19.40;99.90;;;;;;5091021;28;20036;-84
2022/07/13 02:58:00;;;;;;;0.60;0.50;;;19.40;99.90;;;;;;5107158;28;20258;-84
2022/07/13 03:00:27;;;;;;;0.55;0.45;;;19.40;99.90;;;;;;5090733;28;20625;-83
2022/07/13 03:02:54;;;;;;;0.80;0.52;;;19.40;99.90;;;;;;5090270;28;20072;-84
2022/07/13 03:05:23;;;;;;;0.88;0.55;;;19.40;99.90;;;;;;5074301;28;20080;-86
2022/07/13 03:07:50;;;;;;;0.75;0.50;;;19.40;99.90;;;;;;5090722;28;20040;-83
2022/07/13 03:10:17;;;;;;;1.50;0.70;;;19.40;99.90;;;;;;5090387;28;20048;-86
2022/07/13 03:12:43;;;;;;;0.85;0.55;;;19.40;99.90;;;;;;5090453;28;20033;-84
2022/07/13 03:15:10;;;;;;;0.60;0.55;;;19.40;99.90;;;;;;5090277;28;20375;-84
2022/07/13 03:17:37;;;;;;;1.10;0.60;;;19.50;99.90;;;;;;5073536;28;20516;-87
2022/07/13 03:20:04;;;;;;;1.00;0.60;;;19.50;99.90;;;;;;5090201;28;20040;-84
2022/07/13 03:22:31;;;;;;;0.47;0.47;;;19.50;99.90;;;;;;5090309;28;20043;-86
2022/07/13 03:24:58;;;;;;;0.35;0.30;;;19.50;99.90;;;;;;5089672;28;20489;-86
2022/07/13 03:27:25;;;;;;;0.52;0.45;;;19.50;99.90;;;;;;5090021;28;20040;-84
2022/07/13 03:29:51;;;;;;;1.23;0.73;;;19.50;99.90;;;;;;5089682;28;20122;-86
2022/07/13 03:32:18;;;;;;;0.52;0.40;;;19.50;99.90;;;;;;5089700;28;20756;-87
2022/07/13 03:34:45;;;;;;;0.85;0.47;;;19.50;99.90;;;;;;5089968;28;20036;-83
2022/07/13 03:37:11;;;;;;;0.68;0.45;;;19.40;99.90;;;;;;5072761;28;20502;-86
2022/07/13 03:39:39;;;;;;;1.25;0.70;;;19.40;99.90;;;;;;5090137;28;20089;-84
2022/07/13 03:42:06;;;;;;;0.45;0.45;;;19.40;99.90;;;;;;5106287;28;20044;-84
2022/07/13 03:44:32;;;;;;;0.63;0.45;;;19.40;99.90;;;;;;5089483;28;20039;-84
2022/07/13 03:47:00;;;;;;;0.70;0.45;;;19.40;99.90;;;;;;5088585;28;20044;-84
2022/07/13 03:49:26;;;;;;;0.98;0.68;;;19.40;99.90;;;;;;5073155;28;20443;-84
2022/07/13 03:51:53;;;;;;;0.57;0.52;;;19.40;99.90;;;;;;5089683;28;20044;-85
2022/07/13 03:54:20;;;;;;;0.63;0.50;;;19.30;99.90;;;;;;5089716;28;20046;-84
2022/07/13 03:56:46;;;;;;;0.43;0.35;;;19.30;99.90;;;;;;5089586;28;20041;-86
2022/07/13 03:59:13;;;;;;;0.93;0.68;;;19.30;99.90;;;;;;5089481;28;20451;-84
2022/07/13 04:01:40;;;;;;;0.43;0.38;;;19.30;99.90;;;;;;5072837;28;20067;-84
2022/07/13 04:04:07;;;;;;;0.73;0.50;;;19.30;99.90;;;;;;5072628;28;20041;-86
2022/07/13 04:06:34;;;;;;;1.20;0.73;;;19.30;99.90;;;;;;5089580;28;20044;-83
2022/07/13 04:09:01;;;;;;;1.25;0.77;;;19.30;99.90;;;;;;5072943;28;20052;-83
2022/07/13 04:11:28;;;;;;;1.25;0.65;;;19.30;99.90;;;;;;5089643;28;20055;-86
2022/07/13 04:13:55;;;;;;;0.90;0.57;;;19.30;99.90;;;;;;5072474;28;20497;-84
2022/07/13 04:16:21;;;;;;;0.60;0.50;;;19.40;99.90;;;;;;5106292;28;20044;-84
2022/07/13 04:18:48;;;;;;;0.52;0.43;;;19.40;99.90;;;;;;5089256;28;20536;-87
2022/07/13 04:21:16;;;;;;;0.90;0.70;;;19.30;99.90;;;;;;5089200;28;20132;-85
2022/07/13 04:23:42;;;;;;;0.57;0.50;;;19.40;99.90;;;;;;5089207;28;20134;-84
2022/07/13 04:26:09;;;;;;;0.70;0.40;;;19.40;99.90;;;;;;5089283;28;20068;-86
2022/07/13 04:28:36;;;;;;;0.55;0.50;;;19.40;99.90;;;;;;5089774;28;20037;-88
2022/07/13 04:31:03;;;;;;;0.65;0.50;;;19.40;99.90;;;;;;5056490;28;20048;-86
2022/07/13 04:33:29;;;;;;;0.80;0.60;;;19.40;99.90;;;;;;5106439;28;20754;-84
2022/07/13 04:35:56;;;;;;;0.63;0.50;;;19.40;99.90;;;;;;5089300;28;20098;-86
2022/07/13 04:38:22;;;;;;;0.73;0.40;;;19.40;99.90;;;;;;5089105;28;20071;-84
2022/07/13 04:40:49;;;;;;;0.73;0.45;;;19.50;99.90;;;;;;5089280;28;20032;-84
2022/07/13 04:43:16;;;;;;;0.50;0.50;;;19.40;99.90;;;;;;5089091;28;20036;-84
2022/07/13 04:45:42;;;;;;;0.57;0.45;;;19.40;99.90;;;;;;5088835;28;20040;-84
2022/07/13 04:48:09;;;;;;;0.88;0.57;;;19.50;99.90;;;;;;5092824;28;20046;-86
2022/07/13 04:50:36;;;;;;;0.90;0.52;;;19.50;99.90;;;;;;5093304;28;20131;-86
2022/07/13 04:53:03;;;;;;;0.73;0.50;;;19.50;99.90;;;;;;5109552;28;20053;-84
2022/07/13 04:55:29;;;;;;;0.80;0.68;;;19.50;99.90;;;;;;5109627;28;20040;-86
2022/07/13 04:57:57;;;;;;;0.88;0.60;;;19.50;99.90;;;;;;5092526;28;20056;-86
2022/07/13 05:00:24;;;;;;;0.77;0.40;;;19.60;99.90;;;;;;5076683;28;20076;-84
2022/07/13 05:02:51;;;;;;;0.50;0.50;;;19.50;99.90;;;;;;5092710;28;20083;-87
2022/07/13 05:05:18;;;;;;;0.60;0.45;;;19.60;99.90;;;;;;5092269;28;20102;-83
2022/07/13 05:07:44;;;;;;;0.35;0.30;;;19.60;99.90;;;;;;5075923;28;20048;-86
2022/07/13 05:10:11;;;;;;;1.00;0.63;;;19.60;99.90;;;;;;5092114;28;20051;-84
2022/07/13 05:12:39;;;;;;;0.57;0.43;;;19.60;99.90;;;;;;5059336;28;20040;-84
2022/07/13 05:15:10;;;;;;;0.30;0.30;;;19.60;99.90;;;;;;5075806;28;20115;-86
2022/07/13 05:17:37;;;;;;;0.50;0.50;;;19.60;99.90;;;;;;5075722;28;20117;-84
2022/07/13 05:20:05;;;;;;;0.95;0.55;;;19.60;99.90;;;;;;5074922;28;20063;-86
2022/07/13 05:22:32;;;;;;;0.50;0.43;;;19.60;99.90;;;;;;5043048;28;20040;-84
2022/07/13 05:25:02;;;;;;;0.68;0.50;;;19.70;99.90;;;;;;5059256;28;20037;-85
2022/07/13 05:27:30;;;;;;;0.40;0.30;;;19.70;99.90;;;;;;5092698;28;20040;-84
2022/07/13 05:29:57;;;;;;;0.55;0.55;;;19.70;99.90;;;;;;5058858;28;20046;-84
2022/07/13 05:32:24;;;;;;;0.63;0.40;;;19.80;99.90;;;;;;5055333;28;20044;-86
2022/07/13 05:34:50;;;;;;;1.17;0.68;;;19.80;99.90;;;;;;5111850;28;20047;-86
2022/07/13 05:37:17;;;;;;;0.70;0.55;;;19.80;99.90;;;;;;5074641;28;20048;-84
2022/07/13 05:39:46;;;;;;;0.47;0.40;;;19.90;99.90;;;;;;5092506;28;20047;-84
2022/07/13 05:42:14;;;;;;;0.73;0.52;;;19.90;99.90;;;;;;5091547;28;20037;-84
2022/07/13 05:44:42;;;;;;;0.93;0.60;;;19.90;99.90;;;;;;5095455;28;20493;-83
2022/07/13 05:47:09;;;;;;;1.20;0.60;;;19.90;99.90;;;;;;5091385;28;20394;-84
2022/07/13 05:49:35;;;;;;;0.65;0.50;;;19.90;99.90;;;;;;5060735;28;20071;-86
2022/07/13 05:52:02;;;;;;;0.82;0.47;;;19.90;99.90;;;;;;5111086;28;20093;-86
2022/07/13 05:54:30;;;;;;;0.65;0.50;;;19.90;99.90;;;;;;5089352;28;20374;-86
2022/07/13 05:56:57;;;;;;;0.43;0.40;;;19.90;99.90;;;;;;5070757;28;20062;-87
2022/07/13 05:59:23;;;;;;;1.05;0.70;;;19.90;99.90;;;;;;5077426;28;20035;-86
2022/07/13 06:01:50;;;;;;;0.65;0.52;;;20.00;99.90;;;;;;5091636;28;20032;-87
2022/07/13 06:04:17;;;;;;;0.88;0.50;;;20.00;99.90;;;;;;5075585;28;20044;-86
2022/07/13 06:06:43;;;;;;;0.80;0.40;;;20.00;99.90;;;;;;5058837;28;20783;-83
2022/07/13 06:09:11;;;;;;;0.85;0.75;;;20.10;99.90;;;;;;5058251;28;20508;-83
2022/07/13 06:11:39;;;;;;;0.52;0.50;;;20.10;99.90;;;;;;5058683;28;20098;-84
2022/07/13 06:14:06;;;;;;;0.80;0.63;;;20.10;99.90;;;;;;5063858;28;20089;-86
2022/07/13 06:16:34;;;;;;;0.68;0.50;;;20.10;99.90;;;;;;5091133;28;20045;-84
2022/07/13 06:19:01;;;;;;;1.10;0.80;;;20.10;99.90;;;;;;5108420;28;20110;-87
2022/07/13 06:21:27;;;;;;;0.57;0.57;;;20.20;99.90;;;;;;5094926;28;20032;-84
2022/07/13 06:23:54;;;;;;;0.75;0.50;;;20.30;99.90;;;;;;5094969;28;20423;-87
2022/07/13 06:26:21;;;;;;;0.82;0.40;;;20.20;99.90;;;;;;5102045;28;20530;-86
2022/07/13 06:28:48;;;;;;;1.17;0.65;;;20.30;99.90;;;;;;5091357;28;20098;-84
2022/07/13 06:31:15;;;;;;;0.60;0.35;;;20.30;99.90;;;;;;5096964;28;20413;-86
2022/07/13 06:33:41;;;;;;;1.25;0.80;;;20.40;99.90;;;;;;5091451;28;20068;-84
2022/07/13 06:36:08;;;;;;;0.40;0.40;;;20.40;99.90;;;;;;5063973;28;20519;-87
2022/07/13 06:38:35;;;;;;;0.45;0.40;;;20.40;99.90;;;;;;5041424;28;20378;-84
2022/07/13 06:41:02;;;;;;;0.52;0.43;;;20.50;99.90;;;;;;5058107;28;20043;-84
2022/07/13 06:43:29;;;;;;;0.73;0.60;;;20.50;99.90;;;;;;5057677;28;20032;-83
2022/07/13 06:45:55;;;;;;;1.50;0.73;;;20.60;99.90;;;;;;5073973;28;20060;-86
2022/07/13 06:48:22;;;;;;;0.60;0.50;;;20.70;99.90;;;;;;5057379;28;20040;-82
2022/07/13 06:50:49;;;;;;;0.63;0.52;;;20.70;99.90;;;;;;5041096;28;20186;-80
2022/07/13 06:53:15;;;;;;;0.82;0.60;;;20.70;99.90;;;;;;5057398;28;20135;-82
2022/07/13 06:55:42;;;;;;;1.08;0.70;;;20.80;99.90;;;;;;5090098;28;20791;-81
2022/07/13 06:58:09;;;;;;;0.93;0.52;;;20.80;99.90;;;;;;5040289;28;20040;-83
2022/07/13 07:00:36;;;;;;;0.52;0.50;;;21.00;99.90;;;;;;5040543;28;20428;-83
2022/07/13 07:03:03;;;;;;;0.35;0.30;;;21.00;99.90;;;;;;5058014;28;20123;-88
2022/07/13 07:05:29;;;;;;;0.43;0.40;;;21.00;99.90;;;;;;5044113;28;20430;-87
2022/07/13 07:08:09;;;;;;;0.73;0.55;;;21.10;99.90;;;;;;5079222;28;20037;-89
2022/07/13 07:10:37;;;;;;;0.50;0.40;;;21.10;99.90;;;;;;5076270;28;20156;-88
2022/07/13 07:13:03;;;;;;;0.95;0.60;;;21.20;99.90;;;;;;5079461;28;20101;-88
2022/07/13 07:15:30;;;;;;;0.75;0.50;;;21.30;99.90;;;;;;5128011;28;20039;-88
2022/07/13 07:17:56;;;;;;;0.60;0.50;;;21.40;99.90;;;;;;5111585;28;20075;-88
2022/07/13 07:20:23;;;;;;;1.27;0.85;;;21.40;99.90;;;;;;5110980;28;20044;-88
2022/07/13 07:22:50;;;;;;;0.65;0.50;;;21.50;99.90;;;;;;5107844;28;20032;-87
2022/07/13 07:25:18;;;;;;;1.25;0.70;;;21.60;99.90;;;;;;5074096;28;20036;-86
2022/07/13 07:27:44;;;;;;;1.17;0.63;;;21.70;99.90;;;;;;5044961;28;20119;-88
2022/07/13 07:30:11;;;;;;;0.50;0.45;;;21.80;99.90;;;;;;5041511;28;20084;-88
2022/07/13 07:32:39;;;;;;;0.68;0.50;;;21.90;99.90;;;;;;5073326;28;20079;-86
2022/07/13 07:35:08;;;;;;;0.63;0.50;;;22.10;99.90;;;;;;5073902;28;20044;-88
2022/07/13 07:37:37;;;;;;;0.80;0.63;;;22.10;99.90;;;;;;5053495;28;20052;-87
2022/07/13 07:40:04;;;;;;;1.05;0.63;;;22.20;99.90;;;;;;5070484;28;20041;-87
2022/07/13 07:42:31;;;;;;;1.58;0.82;;;22.30;99.90;;;;;;5053516;28;20041;-87
2022/07/13 07:44:57;;;;;;;1.00;0.70;;;22.40;99.90;;;;;;5037589;28;20044;-87
2022/07/13 07:47:25;;;;;;;0.63;0.52;;;22.30;99.90;;;;;;5036990;28;20052;-87
2022/07/13 07:49:55;;;;;;;1.23;0.82;;;22.30;99.90;;;;;;5053597;28;20052;-89
2022/07/13 07:52:22;;;;;;;0.55;0.47;;;22.40;99.90;;;;;;5086703;28;20049;-88
2022/07/13 07:54:48;;;;;;;1.33;0.77;;;22.30;99.90;;;;;;5070760;28;20136;-87
2022/07/13 07:57:15;;;;;;;1.77;1.00;;;22.40;99.90;;;;;;5037513;28;20041;-89
2022/07/13 07:59:42;;;;;;;1.13;0.80;;;22.40;99.90;;;;;;5053730;28;20045;-87
2022/07/13 08:02:09;;;;;;;1.05;0.70;;;22.40;99.90;;;;;;5053875;28;20079;-89
2022/07/13 08:04:36;;;;;;;0.75;0.47;;;22.40;99.90;;;;;;5053586;28;20041;-87
2022/07/13 08:07:03;;;;;;;3.15;0.88;;;22.50;99.90;;;;;;5070220;28;20048;-89
2022/07/13 08:09:29;;;;;;;0.80;0.68;;;22.60;99.90;;;;;;5053616;28;20190;-87
2022/07/13 08:11:56;;;;;;;2.08;1.05;;;22.70;99.90;;;;;;5037350;28;20091;-89
2022/07/13 08:14:23;;;;;;;0.88;0.60;;;22.70;99.90;;;;;;5054775;28;20044;-89
2022/07/13 08:16:50;;;;;;;1.38;1.00;;;22.80;99.90;;;;;;5037059;28;20516;-89
2022/07/13 08:19:17;;;;;;;1.48;0.90;;;22.90;99.90;;;;;;5037867;28;20520;-87
2022/07/13 08:21:44;;;;;;;1.40;0.90;;;23.00;99.90;;;;;;5039430;28;20065;-89
2022/07/13 08:24:10;;;;;;;1.17;0.77;;;23.10;99.90;;;;;;5041675;28;20044;-89
2022/07/13 08:26:37;;;;;;;1.25;0.60;;;23.20;99.90;;;;;;5041658;28;20087;-89
2022/07/13 08:29:05;;;;;;;2.15;1.02;;;23.20;99.90;;;;;;5074926;28;20076;-87
2022/07/13 08:31:31;;;;;;;1.02;0.70;;;23.30;99.90;;;;;;5073772;28;20048;-87
2022/07/13 08:39:28;;;;;;;1.80;0.90;;;23.80;99.90;;;;;;5062327;28;20045;-88
2022/07/13 08:41:59;;;;;;;1.52;0.88;;;23.90;99.90;;;;;;5073810;28;20127;-88
2022/07/13 08:44:26;;;;;;;1.40;0.80;;;24.00;99.90;;;;;;5073955;28;20037;-87
2022/07/13 08:46:53;;;;;;;1.92;0.93;;;24.20;99.90;;;;;;5040524;28;20052;-90
2022/07/13 08:49:25;;;;;;;1.23;0.75;;;24.30;99.90;;;;;;5057167;28;20044;-89
2022/07/13 08:51:52;;;;;;;0.93;0.70;;;24.20;99.90;;;;;;5073273;28;20044;-86
2022/07/13 08:54:19;;;;;;;0.90;0.60;;;24.30;99.90;;;;;;5040975;28;20459;-87
2022/07/13 08:56:46;;;;;;;1.00;0.60;;;24.40;99.90;;;;;;5073438;28;20041;-88
2022/07/13 08:59:13;;;;;;;2.15;0.63;;;24.40;99.90;;;;;;5057507;28;20044;-89
2022/07/13 09:01:40;;;;;;;0.95;0.65;;;24.60;99.90;;;;;;5040607;28;20041;-87
2022/07/13 09:04:11;;;;;;;1.60;0.98;;;24.80;99.90;;;;;;5073329;28;20063;-87
2022/07/13 09:06:45;;;;;;;0.73;0.50;;;24.80;99.90;;;;;;5056602;28;20048;-87
2022/07/13 09:09:38;;;;;;;1.08;0.65;;;24.90;99.90;;;;;;5073593;28;20045;-89
2022/07/13 09:12:22;;;;;;;1.65;0.80;;;25.10;99.90;;;;;;5073220;28;20048;-88
2022/07/13 09:14:58;;;;;;;0.60;0.55;;;25.30;99.90;;;;;;5057311;28;20804;-89
2022/07/13 09:17:44;;;;;;;1.25;0.65;;;25.40;99.90;;;;;;5072746;28;20041;-88
2022/07/13 09:20:10;;;;;;;1.17;0.80;;;25.50;99.90;;;;;;5073256;28;20041;-90
2022/07/13 09:22:58;;;;;;;0.85;0.63;;;25.70;99.90;;;;;;5072788;28;20044;-89
2022/07/13 09:25:39;;;;;;;0.57;0.50;;;25.70;99.90;;;;;;5076853;28;20064;-87
2022/07/13 09:28:07;;;;;;;0.98;0.60;;;25.70;99.90;;;;;;5067169;28;20044;-88
2022/07/13 09:30:36;;;;;;;0.95;0.50;;;25.90;99.90;;;;;;5059946;28;20051;-85
2022/07/13 09:33:03;;;;;;;0.40;0.40;;;25.90;99.90;;;;;;5092261;28;20440;-86
2022/07/13 09:35:39;;;;;;;0.60;0.40;;;26.00;99.90;;;;;;5043005;28;20041;-86
2022/07/13 09:38:07;;;;;;;1.23;0.60;;;26.00;99.90;;;;;;5066478;28;20080;-87
2022/07/13 09:40:33;;;;;;;0.60;0.50;;;26.00;99.90;;;;;;5023748;28;20041;-85
2022/07/13 09:48:30;;;;;;;0.63;0.45;;;26.10;99.90;;;;;;5058680;28;20083;-88
2022/07/13 09:50:57;;;;;;;0.98;0.60;;;26.20;99.90;;;;;;5056273;28;20102;-89
2022/07/13 09:53:29;;;;;;;0.60;0.50;;;26.30;99.90;;;;;;5024167;28;20048;-85
2022/07/13 09:55:58;;;;;;;0.30;0.30;;;26.60;99.90;;;;;;5062721;28;20049;-87
2022/07/13 09:58:49;;;;;;;0.32;0.32;;;26.60;99.90;;;;;;5075599;28;20068;-87
2022/07/13 10:01:16;;;;;;;0.60;0.40;;;26.70;99.90;;;;;;5087232;28;20086;-87
2022/07/13 10:03:44;;;;;;;0.40;0.40;;;26.70;99.90;;;;;;5042482;28;20040;-87
2022/07/13 10:06:13;;;;;;;0.30;0.30;;;26.60;99.90;;;;;;5075252;28;20542;-85
2022/07/13 10:08:40;;;;;;;0.30;0.30;;;26.70;99.90;;;;;;5054711;28;20079;-85
2022/07/13 10:11:08;;;;;;;1.85;0.68;;;27.00;99.90;;;;;;5022998;28;20100;-85
2022/07/13 10:13:35;;;;;;;0.43;0.40;;;27.00;99.90;;;;;;5038888;28;20036;-83
2022/07/13 10:16:02;;;;;;;0.22;0.22;;;27.10;99.90;;;;;;5054550;28;20047;-87
2022/07/13 10:18:32;;;;;;;0.88;0.38;;;27.20;99.90;;;;;;5039057;28;20045;-86
2022/07/13 10:21:12;;;;;;;0.38;0.38;;;27.10;99.90;;;;;;5038026;28;20498;-86
2022/07/13 10:23:40;;;;;;;0.60;0.50;;;27.10;99.90;;;;;;5054886;28;20036;-86
2022/07/13 10:26:24;;;;;;;0.43;0.40;;;27.20;99.90;;;;;;5038638;28;20076;-86
2022/07/13 10:29:06;;;;;;;0.43;0.40;;;27.30;99.90;;;;;;5054486;28;20041;-84
2022/07/13 10:31:35;;;;;;;0.40;0.40;;;27.40;99.90;;;;;;5055058;28;20041;-86
2022/07/13 10:34:04;;;;;;;0.50;0.40;;;27.40;99.90;;;;;;5054358;28;20076;-84
2022/07/13 10:36:49;;;;;;;0.47;0.40;;;27.20;99.90;;;;;;5062341;28;20052;-88
2022/07/13 10:39:24;;;;;;;0.60;0.40;;;27.30;99.90;;;;;;5074324;28;20040;-85
2022/07/13 10:41:57;;;;;;;0.57;0.40;;;27.30;99.90;;;;;;5092011;28;20058;-86
2022/07/13 10:44:41;;;;;;;0.20;0.20;;;27.30;99.90;;;;;;5090658;28;20040;-85
2022/07/13 10:47:13;;;;;;;0.30;0.30;;;27.40;99.90;;;;;;5058216;28;20037;-85
2022/07/13 10:49:46;;;;;;;0.43;0.32;;;27.50;99.90;;;;;;5058341;28;20059;-90
2022/07/13 10:52:19;;;;;;;0.28;0.28;;;27.60;99.90;;;;;;5057852;28;20040;-83
2022/07/13 10:55:13;;;;;;;0.70;0.50;;;27.70;99.90;;;;;;5087745;28;20076;-82
2022/07/13 10:57:42;;;;;;;0.95;0.40;;;27.80;99.90;;;;;;5073333;28;20105;-87
2022/07/13 11:02:48;;;;;;;0.20;0.20;;;27.70;97.40;;;;;;5106652;28;20867;-85
2022/07/13 11:05:17;;;;;;;0.65;0.55;;;27.70;97.90;;;;;;5101070;28;20039;-85
2022/07/13 11:07:46;;;;;;;0.30;0.30;;;27.80;96.20;;;;;;5094642;28;20378;-86
2022/07/13 11:10:28;;;;;;;0.32;0.30;;;27.80;97.60;;;;;;5075890;28;20040;-91
2022/07/13 11:12:58;;;;;;;0.38;0.38;;;27.90;98.40;;;;;;5089943;28;20119;-86
2022/07/13 11:15:44;;;;;;;0.55;0.38;;;27.90;98.40;;;;;;5073760;28;20067;-87
2022/07/13 11:18:32;;;;;;;0.30;0.30;;;27.90;95.90;;;;;;5089360;28;20045;-85
2022/07/13 11:21:16;;;;;;;0.55;0.47;;;28.00;95.70;;;;;;5082105;28;20114;-88
2022/07/13 11:26:46;;;;;;;;;;;28.00;94.40;;;;;;5124374;28;20429;-88
2022/07/13 11:29:32;;;;;;;0.22;0.17;;;28.10;94.70;;;;;;5106311;28;19921;-88
2022/07/13 11:32:00;;;;;;;0.10;0.10;;;28.20;97.20;;;;;;5078524;28;20036;-88
2022/07/13 11:34:28;;;;;;;0.43;0.32;;;28.20;96.70;;;;;;5088236;28;20039;-87
2022/07/13 11:36:58;;;;;;;0.35;0.35;;;28.10;96.40;;;;;;5072304;28;20157;-86
2022/07/13 11:39:30;;;;;;;0.35;0.30;;;28.00;95.40;;;;;;5096150;28;20040;-87
2022/07/13 11:41:59;;;;;;;0.30;0.30;;;28.00;93.60;;;;;;5093134;28;20032;-86
2022/07/13 11:44:30;;;;;;;0.30;0.30;;;28.10;97.10;;;;;;5093308;28;20039;-88
2022/07/13 11:47:02;;;;;;;0.20;0.20;;;28.30;95.40;;;;;;5077284;28;20550;-87
2022/07/13 11:49:46;;;;;;;0.60;0.40;;;28.40;93.80;;;;;;5093960;28;20040;-87
2022/07/13 11:52:27;;;;;;;0.20;0.20;;;28.20;94.40;;;;;;5093773;28;20400;-87
2022/07/13 11:54:58;;;;;;;0.20;0.20;;;28.20;95.10;;;;;;5093254;28;20091;-87
2022/07/13 11:57:25;;;;;;;0.20;0.20;;;28.10;94.20;;;;;;5081309;28;20041;-86
2022/07/13 11:59:52;;;;;;;0.30;0.30;;;28.00;93.60;;;;;;5040263;28;20127;-87
2022/07/13 12:02:19;;;;;;;0.35;0.35;;;27.90;94.10;;;;;;5040678;28;20123;-87
2022/07/13 12:04:47;;;;;;;0.50;0.30;;;27.90;94.30;;;;;;5056448;28;20671;-86
2022/07/13 12:07:21;;;;;;;1.45;0.43;;;28.00;95.90;;;;;;5063470;28;20106;-88
2022/07/13 12:10:07;;;;;;;0.35;0.30;;;28.20;96.70;;;;;;5093817;28;20592;-88
2022/07/13 12:12:40;;;;;;;0.45;0.40;;;28.10;95.80;;;;;;5076373;28;20043;-86
2022/07/13 12:15:07;;;;;;;0.40;0.40;;;27.90;92.80;;;;;;5078320;28;20040;-88
2022/07/13 12:17:42;;;;;;;0.35;0.32;;;27.90;95.90;;;;;;5072881;28;20047;-88
2022/07/13 12:20:18;;;;;;;0.40;0.40;;;27.80;94.10;;;;;;5075812;28;20464;-88
2022/07/13 12:22:52;;;;;;;0.35;0.35;;;27.80;96.20;;;;;;5088373;28;20069;-86
2022/07/13 12:25:39;;;;;;;0.30;0.30;;;27.80;96.30;;;;;;5073248;28;20090;-86
2022/07/13 12:28:11;;;;;;;0.28;0.28;;;27.60;95.30;;;;;;5072430;28;20474;-85
2022/07/13 12:30:59;;;;;;;0.30;0.30;;;27.30;93.90;;;;;;5089622;28;20044;-86
2022/07/13 12:33:37;;;;;;;0.32;0.30;;;27.30;96.40;;;;;;5073036;28;20044;-87
2022/07/13 12:36:05;;;;;;;0.32;0.32;;;27.30;96.50;;;;;;5089099;28;20146;-88
2022/07/13 12:38:32;;;;;;;0.40;0.30;;;27.20;97.30;;;;;;5056384;28;20052;-88
2022/07/13 12:41:01;;;;;;;0.38;0.30;;;27.30;98.90;;;;;;5052576;28;20044;-87
2022/07/13 12:43:29;;;;;;;0.75;0.28;;;27.20;99.00;;;;;;5092724;28;20032;-88
2022/07/13 12:46:01;;;;;;;0.30;0.30;;;27.20;98.60;;;;;;5073324;28;20040;-87
2022/07/13 12:48:32;;;;;;;0.55;0.20;;;27.20;98.70;;;;;;5040501;28;20045;-89
2022/07/13 12:51:07;;;;;;;0.75;0.47;;;27.00;99.10;;;;;;5089293;28;20041;-87
2022/07/13 12:53:47;;;;;;;0.28;0.28;;;26.90;99.90;;;;;;5088944;28;20040;-85
2022/07/13 12:56:18;;;;;;;0.25;0.22;;;26.90;99.80;;;;;;5056597;28;20123;-87
2022/07/13 12:58:57;;;;;;;0.20;0.20;;;26.80;98.90;;;;;;5072486;28;20075;-86
2022/07/13 13:01:35;;;;;;;0.40;0.40;;;26.80;99.90;;;;;;5072929;28;20040;-88
2022/07/13 13:04:04;;;;;;;0.30;0.30;;;26.80;98.70;;;;;;5076927;28;20044;-88
2022/07/13 13:06:35;;;;;;;0.40;0.40;;;26.70;98.90;;;;;;5092824;28;20032;-88
2022/07/13 13:09:09;;;;;;;2.03;0.50;;;26.90;99.60;;;;;;5096752;28;20050;-86
2022/07/13 13:11:37;;;;;;;0.63;0.30;;;26.90;97.80;;;;;;5079915;28;20036;-87
2022/07/13 13:14:04;;;;;;;0.32;0.30;;;26.70;98.20;;;;;;5108565;28;20306;-88